createdAt,value
2023-08-11T00:01:24.152Z,4.20
2023-08-11T00:03:51.032Z,6.57
2023-08-11T00:06:17.655Z,6.57
2023-08-11T00:08:44.448Z,7.00
2023-08-11T00:11:12.563Z,8.30
2023-08-11T00:13:39.131Z,8.38
2023-08-11T00:16:06.200Z,7.10
2023-08-11T00:18:32.917Z,6.80
2023-08-11T00:21:00.436Z,7.50
2023-08-11T00:23:27.047Z,6.10
2023-08-11T00:25:53.588Z,4.38
2023-08-11T00:28:20.119Z,7.88
2023-08-11T00:30:46.651Z,7.32
2023-08-11T00:33:13.159Z,7.38
2023-08-11T00:35:41.957Z,4.93
2023-08-11T00:38:08.608Z,6.75
2023-08-11T00:40:35.201Z,7.22
2023-08-11T00:43:02.025Z,8.10
2023-08-11T00:45:29.050Z,8.63
2023-08-11T00:47:55.863Z,11.00
2023-08-11T00:50:22.546Z,12.30
2023-08-11T00:52:50.850Z,10.82
2023-08-11T00:55:20.037Z,9.10
2023-08-11T00:57:47.573Z,13.38
2023-08-11T01:00:15.463Z,7.10
2023-08-11T01:02:43.984Z,12.43
2023-08-11T01:05:15.820Z,10.95
2023-08-11T01:07:57.598Z,10.55
2023-08-11T01:10:58.348Z,13.45
2023-08-11T01:13:30.285Z,13.10
2023-08-11T01:16:01.497Z,10.50
2023-08-11T01:18:29.855Z,8.55
2023-08-11T01:21:01.149Z,13.02
2023-08-11T01:23:27.816Z,6.60
2023-08-11T01:25:54.856Z,10.88
2023-08-11T01:28:21.588Z,9.25
2023-08-11T01:30:49.463Z,12.55
2023-08-11T01:33:16.416Z,10.35
2023-08-11T01:35:43.034Z,9.27
2023-08-11T01:38:10.701Z,8.55
2023-08-11T01:40:38.595Z,9.70
2023-08-11T01:43:08.287Z,6.50
2023-08-11T01:45:35.256Z,8.18
2023-08-11T01:48:03.615Z,9.57
2023-08-11T01:50:31.605Z,10.77
2023-08-11T01:52:58.545Z,9.77
2023-08-11T01:55:26.422Z,9.98
2023-08-11T01:57:59.380Z,11.13
2023-08-11T02:00:27.743Z,9.48
2023-08-11T02:02:54.873Z,13.70
2023-08-11T02:05:21.784Z,11.70
2023-08-11T02:07:48.368Z,14.20
2023-08-11T02:10:15.022Z,11.13
2023-08-11T02:12:41.819Z,12.02
2023-08-11T02:15:09.649Z,11.23
2023-08-11T02:17:36.432Z,17.15
2023-08-11T02:20:19.327Z,12.98
2023-08-11T02:22:46.197Z,17.80
2023-08-11T02:25:12.941Z,17.10
2023-08-11T02:27:39.621Z,13.25
2023-08-11T02:30:08.404Z,12.27
2023-08-11T02:32:35.049Z,17.80
2023-08-11T02:35:01.717Z,20.30
2023-08-11T02:37:28.319Z,17.75
2023-08-11T02:39:54.836Z,16.60
2023-08-11T02:42:21.959Z,13.77
2023-08-11T02:44:48.540Z,17.73
2023-08-11T02:47:15.065Z,17.98
2023-08-11T02:49:41.630Z,14.50
2023-08-11T02:52:08.832Z,18.27
2023-08-11T02:54:35.684Z,17.25
2023-08-11T02:57:03.008Z,15.10
2023-08-11T02:59:29.581Z,20.38
2023-08-11T03:01:56.224Z,21.08
2023-08-11T03:04:22.889Z,19.88
2023-08-11T03:06:49.438Z,14.25
2023-08-11T03:09:15.962Z,15.93
2023-08-11T03:11:42.576Z,22.60
2023-08-11T03:14:09.125Z,21.30
2023-08-11T03:16:35.709Z,16.65
2023-08-11T03:19:02.306Z,21.38
2023-08-11T03:21:28.900Z,19.35
2023-08-11T03:23:55.650Z,17.08
2023-08-11T03:26:22.254Z,18.52
2023-08-11T03:28:48.807Z,20.52
2023-08-11T03:31:15.366Z,16.13
2023-08-11T03:33:41.978Z,15.57
2023-08-11T03:36:08.512Z,17.17
2023-08-11T03:38:35.063Z,18.52
2023-08-11T03:41:01.923Z,15.85
2023-08-11T03:43:28.502Z,15.20
2023-08-11T03:45:55.001Z,15.38
2023-08-11T03:48:22.020Z,11.63
2023-08-11T03:50:48.583Z,11.95
2023-08-11T03:53:15.490Z,11.18
2023-08-11T03:55:44.702Z,14.73
2023-08-11T03:58:14.129Z,12.50
2023-08-11T04:00:41.534Z,7.53
2023-08-11T04:03:10.482Z,9.02
2023-08-11T04:05:37.547Z,8.07
2023-08-11T04:08:05.645Z,10.45
2023-08-11T04:10:32.484Z,9.00
2023-08-11T04:12:59.271Z,8.13
2023-08-11T04:15:25.991Z,9.75
2023-08-11T04:17:52.627Z,8.15
2023-08-11T04:20:19.218Z,10.05
2023-08-11T04:22:45.886Z,8.82
2023-08-11T04:25:13.927Z,10.02
2023-08-11T04:27:40.843Z,11.45
2023-08-11T04:30:09.136Z,9.10
2023-08-11T04:32:35.898Z,9.75
2023-08-11T04:35:02.498Z,11.07
2023-08-11T04:37:29.081Z,10.90
2023-08-11T04:39:55.693Z,11.00
2023-08-11T04:42:22.231Z,10.82
2023-08-11T04:44:48.981Z,9.27
2023-08-11T04:47:16.088Z,12.10
2023-08-11T04:49:44.487Z,13.48
2023-08-11T04:52:11.303Z,11.20
2023-08-11T04:54:37.895Z,8.93
2023-08-11T04:57:04.840Z,12.27
2023-08-11T04:59:32.664Z,8.30
2023-08-11T05:02:00.187Z,10.90
2023-08-11T05:04:27.334Z,9.23
2023-08-11T05:06:53.973Z,10.95
2023-08-11T05:09:20.733Z,11.73
2023-08-11T05:11:47.296Z,13.27
2023-08-11T05:14:17.163Z,11.70
2023-08-11T05:16:43.773Z,8.23
2023-08-11T05:19:10.319Z,9.98
2023-08-11T05:21:38.925Z,11.60
2023-08-11T05:24:06.110Z,10.60
2023-08-11T05:26:32.757Z,15.05
2023-08-11T05:28:59.827Z,12.43
2023-08-11T05:31:26.572Z,12.60
2023-08-11T05:33:53.807Z,14.15
2023-08-11T05:36:20.462Z,14.88
2023-08-11T05:38:47.137Z,15.85
2023-08-11T05:41:13.770Z,10.48
2023-08-11T05:43:40.573Z,9.90
2023-08-11T05:46:10.159Z,12.93
2023-08-11T05:48:37.142Z,16.20
2023-08-11T05:51:05.236Z,12.32
2023-08-11T05:53:31.938Z,10.55
2023-08-11T05:55:58.858Z,9.20
2023-08-11T05:58:25.452Z,15.73
2023-08-11T06:00:52.791Z,14.93
2023-08-11T06:03:19.423Z,15.35
2023-08-11T06:05:46.043Z,13.90
2023-08-11T06:08:12.599Z,21.13
2023-08-11T06:10:39.194Z,17.05
2023-08-11T06:13:05.768Z,16.55
2023-08-11T06:15:32.404Z,19.45
2023-08-11T06:17:59.136Z,10.07
2023-08-11T06:20:38.672Z,12.02
2023-08-11T06:23:06.052Z,17.65
2023-08-11T06:25:32.644Z,11.10
2023-08-11T06:27:59.198Z,15.00
2023-08-11T06:30:28.870Z,9.00
2023-08-11T06:32:55.992Z,13.68
2023-08-11T06:35:23.352Z,10.95
2023-08-11T06:37:50.337Z,7.82
2023-08-11T06:40:17.058Z,14.95
2023-08-11T06:42:46.597Z,10.18
2023-08-11T06:45:13.262Z,7.93
2023-08-11T06:47:39.856Z,9.05
2023-08-11T06:50:06.886Z,7.85
2023-08-11T06:52:33.434Z,13.40
2023-08-11T06:55:00.022Z,13.90
2023-08-11T06:57:26.641Z,11.23
2023-08-11T06:59:53.321Z,11.32
2023-08-11T07:02:20.018Z,10.75
2023-08-11T07:04:46.591Z,15.48
2023-08-11T07:07:13.274Z,10.55
2023-08-11T07:09:39.881Z,8.38
2023-08-11T07:12:07.339Z,7.38
2023-08-11T07:14:33.918Z,13.20
2023-08-11T07:17:00.634Z,10.05
2023-08-11T07:19:27.235Z,17.23
2023-08-11T07:21:53.810Z,8.30
2023-08-11T07:24:20.365Z,11.57
2023-08-11T07:26:46.912Z,11.95
2023-08-11T07:29:13.515Z,8.70
2023-08-11T07:31:40.886Z,10.73
2023-08-11T07:34:07.552Z,8.27
2023-08-11T07:36:34.179Z,9.88
2023-08-11T07:39:16.861Z,6.88
2023-08-11T07:41:47.333Z,7.28
2023-08-11T07:44:13.981Z,7.15
2023-08-11T07:46:40.753Z,6.70
2023-08-11T07:49:07.790Z,15.80
2023-08-11T07:51:49.264Z,8.00
2023-08-11T07:54:17.954Z,9.10
2023-08-11T07:56:45.420Z,10.05
2023-08-11T07:59:12.431Z,9.15
2023-08-11T08:01:39.245Z,10.15
2023-08-11T08:04:06.209Z,6.38
2023-08-11T08:06:33.527Z,9.25
2023-08-11T08:09:00.171Z,8.80
2023-08-11T08:11:27.460Z,10.90
2023-08-11T08:13:54.086Z,7.78
2023-08-11T08:16:20.766Z,6.63
2023-08-11T08:18:47.530Z,5.60
2023-08-11T08:21:14.219Z,7.72
2023-08-11T08:23:40.788Z,5.75
2023-08-11T08:26:08.472Z,4.60
2023-08-11T08:28:35.029Z,7.05
2023-08-11T08:31:01.578Z,3.78
2023-08-11T08:33:28.434Z,4.82
2023-08-11T08:35:55.285Z,6.07
2023-08-11T08:38:21.835Z,5.25
2023-08-11T08:40:48.652Z,4.68
2023-08-11T08:43:15.299Z,5.05
2023-08-11T08:45:44.451Z,5.50
2023-08-11T08:48:20.579Z,5.00
2023-08-11T08:50:47.092Z,5.35
2023-08-11T08:53:13.957Z,4.40
2023-08-11T08:55:41.788Z,6.05
2023-08-11T08:58:10.493Z,4.97
2023-08-11T09:00:37.123Z,6.72
2023-08-11T09:03:04.665Z,2.95
2023-08-11T09:05:33.075Z,4.35
2023-08-11T09:07:59.683Z,4.88
2023-08-11T09:10:26.496Z,3.75
2023-08-11T09:12:53.111Z,10.07
2023-08-11T09:15:19.715Z,6.68
2023-08-11T09:17:48.312Z,4.03
2023-08-11T09:20:19.040Z,5.05
2023-08-11T09:22:45.580Z,8.45
2023-08-11T09:25:13.429Z,9.82
2023-08-11T09:27:40.099Z,4.35
2023-08-11T09:30:10.612Z,5.38
2023-08-11T09:32:37.335Z,6.60
2023-08-11T09:35:11.541Z,5.55
2023-08-11T09:37:44.596Z,12.55
2023-08-11T09:40:12.665Z,4.93
2023-08-11T09:42:39.546Z,4.88
2023-08-11T09:45:06.795Z,5.25
2023-08-11T09:47:33.349Z,6.80
2023-08-11T09:50:00.355Z,4.68
2023-08-11T09:52:28.620Z,5.00
2023-08-11T09:54:57.248Z,7.13
2023-08-11T09:57:25.263Z,10.43
2023-08-11T09:59:54.676Z,6.55
2023-08-11T10:02:26.300Z,7.30
2023-08-11T10:05:07.919Z,4.68
2023-08-11T10:07:40.240Z,6.82
2023-08-11T10:10:10.075Z,8.05
2023-08-11T10:12:41.878Z,5.65
2023-08-11T10:15:11.108Z,3.58
2023-08-11T10:17:38.143Z,4.50
2023-08-11T10:20:05.927Z,5.55
2023-08-11T10:22:33.797Z,10.95
2023-08-11T10:25:04.006Z,9.43
2023-08-11T10:27:31.697Z,6.10
2023-08-11T10:29:58.762Z,6.95
2023-08-11T10:32:30.017Z,8.82
2023-08-11T10:34:57.612Z,4.38
2023-08-11T10:37:33.993Z,5.70
2023-08-11T10:40:10.440Z,7.05
2023-08-11T10:42:37.634Z,7.90
2023-08-11T10:45:24.775Z,9.90
2023-08-11T10:47:54.478Z,6.05
2023-08-11T10:50:22.328Z,6.13
2023-08-11T10:53:19.697Z,9.45
2023-08-11T10:56:06.293Z,9.07
2023-08-11T10:58:38.654Z,5.82
2023-08-11T11:01:06.005Z,6.97
2023-08-11T11:03:34.948Z,6.93
2023-08-11T11:06:05.756Z,6.50
2023-08-11T11:08:32.408Z,6.78
2023-08-11T11:10:58.966Z,5.53
2023-08-11T11:13:25.751Z,10.48
2023-08-11T11:15:52.736Z,4.65
2023-08-11T11:18:19.463Z,3.42
2023-08-11T11:20:46.014Z,5.47
2023-08-11T11:23:12.766Z,6.97
2023-08-11T11:25:39.336Z,6.28
2023-08-11T11:28:06.181Z,3.78
2023-08-11T11:30:34.094Z,7.07
2023-08-11T11:33:02.862Z,6.35
2023-08-11T11:35:31.333Z,5.28
2023-08-11T11:37:59.951Z,8.98
2023-08-11T11:40:26.567Z,6.30
2023-08-11T11:42:53.137Z,5.53
2023-08-11T11:45:20.474Z,10.25
2023-08-11T11:47:48.279Z,7.18
2023-08-11T11:50:14.994Z,3.72
2023-08-11T11:52:47.799Z,6.85
2023-08-11T11:55:14.522Z,6.68
2023-08-11T11:57:41.191Z,6.32
2023-08-11T12:00:17.171Z,6.03
2023-08-11T12:02:45.154Z,8.20
2023-08-11T12:05:13.776Z,5.03
2023-08-11T12:07:41.363Z,4.78
2023-08-11T12:10:08.436Z,9.05
2023-08-11T12:12:35.093Z,4.05
2023-08-11T12:15:07.050Z,7.57
2023-08-11T12:17:35.134Z,4.88
2023-08-11T12:20:05.140Z,7.85
2023-08-11T12:22:31.744Z,4.93
2023-08-11T12:24:58.339Z,7.35
2023-08-11T12:27:24.962Z,5.20
2023-08-11T12:29:51.510Z,4.50
2023-08-11T12:32:18.061Z,6.18
2023-08-11T12:34:44.594Z,7.03
2023-08-11T12:37:13.315Z,7.68
2023-08-11T12:39:40.093Z,5.85
2023-08-11T12:42:07.039Z,5.05
2023-08-11T12:44:33.891Z,5.88
2023-08-11T12:47:00.476Z,7.63
2023-08-11T12:49:27.044Z,2.80
2023-08-11T12:51:54.028Z,4.65
2023-08-11T12:54:20.680Z,6.47
2023-08-11T12:56:47.885Z,5.47
2023-08-11T12:59:14.684Z,9.70
2023-08-11T13:01:41.311Z,5.35
2023-08-11T13:04:08.348Z,6.45
2023-08-11T13:06:35.322Z,12.30
2023-08-11T13:09:02.202Z,4.80
2023-08-11T13:11:28.928Z,3.85
2023-08-11T13:13:55.739Z,4.30
2023-08-11T13:16:22.515Z,4.53
2023-08-11T13:18:49.173Z,3.45
2023-08-11T13:21:15.725Z,6.60
2023-08-11T13:23:42.254Z,6.00
2023-08-11T13:26:09.072Z,9.32
2023-08-11T13:28:35.731Z,4.18
2023-08-11T13:31:02.521Z,4.38
2023-08-11T13:33:29.082Z,5.95
2023-08-11T13:35:55.612Z,11.80
2023-08-11T13:38:23.813Z,5.18
2023-08-11T13:40:50.490Z,5.45
2023-08-11T13:43:20.425Z,7.10
2023-08-11T13:45:47.059Z,4.07
2023-08-11T13:48:13.618Z,4.40
2023-08-11T13:50:40.659Z,7.45
2023-08-11T13:53:07.251Z,9.10
2023-08-11T13:55:34.284Z,4.93
2023-08-11T13:58:00.869Z,5.45
2023-08-11T14:00:29.696Z,4.97
2023-08-11T14:02:58.044Z,4.22
2023-08-11T14:05:25.767Z,12.68
2023-08-11T14:07:52.384Z,4.88
2023-08-11T14:10:20.181Z,5.10
2023-08-11T14:12:47.801Z,5.47
2023-08-11T14:15:14.839Z,4.93
2023-08-11T14:17:41.896Z,4.55
2023-08-11T14:20:09.155Z,7.00
2023-08-11T14:22:35.709Z,4.35
2023-08-11T14:25:02.278Z,8.60
2023-08-11T14:27:28.912Z,6.07
2023-08-11T14:29:55.460Z,3.58
2023-08-11T14:32:26.241Z,8.05
2023-08-11T14:34:53.783Z,5.53
2023-08-11T14:37:21.693Z,4.82
2023-08-11T14:39:48.436Z,4.93
2023-08-11T14:42:15.436Z,3.92
2023-08-11T14:44:42.528Z,4.95
2023-08-11T14:47:14.267Z,7.22
2023-08-11T14:49:42.122Z,5.93
2023-08-11T14:52:09.054Z,5.53
2023-08-11T14:54:35.962Z,3.72
2023-08-11T14:57:02.632Z,8.63
2023-08-11T14:59:29.472Z,8.55
2023-08-11T15:01:56.409Z,6.60
2023-08-11T15:04:22.966Z,6.43
2023-08-11T15:06:49.538Z,5.70
2023-08-11T15:09:16.181Z,12.55
2023-08-11T15:11:42.713Z,3.30
2023-08-11T15:14:10.998Z,4.88
2023-08-11T15:16:37.661Z,4.63
2023-08-11T15:19:04.394Z,4.32
2023-08-11T15:21:30.952Z,6.55
2023-08-11T15:23:57.600Z,5.55
2023-08-11T15:26:25.383Z,6.55
2023-08-11T15:28:52.239Z,4.75
2023-08-11T15:31:19.203Z,7.43
2023-08-11T15:33:45.874Z,5.15
2023-08-11T15:36:12.446Z,3.72
2023-08-11T15:38:39.033Z,3.92
2023-08-11T15:41:05.658Z,4.55
2023-08-11T15:43:32.888Z,4.90
2023-08-11T15:45:59.641Z,9.55
2023-08-11T15:48:28.497Z,7.03
2023-08-11T15:50:55.255Z,4.43
2023-08-11T15:53:21.926Z,6.25
2023-08-11T15:55:48.494Z,5.18
2023-08-11T15:58:15.054Z,3.65
2023-08-11T16:00:42.180Z,6.15
2023-08-11T16:03:08.902Z,3.70
2023-08-11T16:05:35.563Z,5.10
2023-08-11T16:08:02.077Z,3.35
2023-08-11T16:10:32.784Z,5.03
2023-08-11T16:12:59.483Z,6.20
2023-08-11T16:15:25.997Z,5.25
2023-08-11T16:17:54.803Z,3.30
2023-08-11T16:20:21.774Z,3.67
2023-08-11T16:22:48.819Z,6.05
2023-08-11T16:25:15.461Z,3.90
2023-08-11T16:27:42.074Z,6.43
2023-08-11T16:30:11.290Z,5.07
2023-08-11T16:32:38.000Z,6.75
2023-08-11T16:35:04.805Z,6.55
2023-08-11T16:37:31.353Z,5.95
2023-08-11T16:39:58.011Z,5.30
2023-08-11T16:42:24.621Z,6.20
2023-08-11T16:44:51.206Z,3.63
2023-08-11T16:47:17.813Z,4.82
2023-08-11T16:49:44.464Z,4.55
2023-08-11T16:52:11.561Z,3.72
2023-08-11T16:54:38.409Z,5.03
2023-08-11T16:57:04.960Z,4.90
2023-08-11T16:59:31.495Z,5.10
2023-08-11T17:01:58.048Z,8.45
2023-08-11T17:04:24.939Z,5.85
2023-08-11T17:06:51.684Z,6.57
2023-08-11T17:09:18.765Z,6.60
2023-08-11T17:11:45.408Z,5.47
2023-08-11T17:14:12.022Z,6.25
2023-08-11T17:16:38.919Z,8.15
2023-08-11T17:19:05.589Z,10.65
2023-08-11T17:21:32.199Z,4.57
2023-08-11T17:23:58.770Z,7.45
2023-08-11T17:26:25.431Z,10.90
2023-08-11T17:28:56.814Z,5.53
2023-08-11T17:31:24.481Z,5.60
2023-08-11T17:33:51.250Z,5.82
2023-08-11T17:36:20.146Z,7.03
2023-08-11T17:38:47.491Z,6.82
2023-08-11T17:41:14.313Z,6.90
2023-08-11T17:43:40.919Z,26.17
2023-08-11T17:46:07.666Z,26.60
2023-08-11T17:48:34.337Z,33.88
2023-08-11T17:51:02.116Z,28.58
2023-08-11T17:53:28.776Z,41.08
2023-08-11T17:55:55.338Z,37.92
2023-08-11T17:58:21.938Z,79.55
2023-08-11T18:00:48.800Z,91.72
2023-08-11T18:03:15.507Z,39.63
2023-08-11T18:05:42.239Z,40.25
2023-08-11T18:08:08.871Z,84.82
2023-08-11T18:10:35.948Z,41.70
2023-08-11T18:13:02.642Z,154.20
2023-08-11T18:15:29.322Z,102.13
2023-08-11T18:17:56.023Z,60.88
2023-08-11T18:20:22.792Z,25.67
2023-08-11T18:22:49.599Z,66.90
2023-08-11T18:25:16.552Z,133.80
2023-08-11T18:27:43.228Z,180.00
2023-08-11T18:30:10.384Z,68.88
2023-08-11T18:32:37.027Z,105.88
2023-08-11T18:35:03.897Z,158.63
2023-08-11T18:37:30.470Z,168.95
2023-08-11T18:39:57.148Z,161.68
2023-08-11T18:42:23.754Z,130.63
2023-08-11T18:44:50.602Z,51.10
2023-08-11T18:47:17.187Z,36.88
2023-08-11T18:49:43.798Z,26.60
2023-08-11T18:52:13.348Z,15.75
2023-08-11T18:57:13.349Z,33.13
2023-08-11T18:59:41.075Z,12.88
2023-08-11T19:02:08.529Z,31.08
2023-08-11T19:04:35.358Z,57.05
2023-08-11T19:07:01.998Z,55.17
2023-08-11T19:09:28.640Z,62.13
2023-08-11T19:11:55.370Z,67.63
2023-08-11T19:14:22.136Z,28.55
2023-08-11T19:16:48.832Z,61.50
2023-08-11T19:19:16.263Z,28.60
2023-08-11T19:21:45.030Z,18.05
2023-08-11T19:24:13.164Z,30.42
2023-08-11T19:26:41.712Z,16.30
2023-08-11T19:29:08.734Z,43.65
2023-08-11T19:31:35.658Z,56.58
2023-08-11T19:34:04.677Z,33.58
2023-08-11T19:36:32.381Z,55.72
2023-08-11T19:39:00.689Z,39.85
2023-08-11T19:41:27.216Z,31.63
2023-08-11T19:43:53.824Z,40.42
2023-08-11T19:46:20.388Z,18.73
2023-08-11T19:48:47.306Z,31.20
2023-08-11T19:51:14.239Z,23.60
2023-08-11T19:53:40.859Z,16.48
2023-08-11T19:56:10.378Z,14.18
2023-08-11T19:58:37.696Z,21.42
2023-08-11T20:01:09.539Z,24.73
2023-08-11T20:03:36.134Z,41.92
2023-08-11T20:06:03.650Z,22.55
2023-08-11T20:08:33.129Z,9.40
2023-08-11T20:11:00.209Z,12.98
2023-08-11T20:13:26.754Z,10.63
2023-08-11T20:15:57.895Z,23.00
2023-08-11T20:18:25.109Z,32.38
2023-08-11T20:20:51.657Z,39.28
2023-08-11T20:23:18.584Z,23.08
2023-08-11T20:25:45.276Z,12.07
2023-08-11T20:28:14.626Z,13.38
2023-08-11T20:30:43.717Z,28.33
2023-08-11T20:33:10.618Z,23.98
2023-08-11T20:35:37.384Z,30.00
2023-08-11T20:38:04.205Z,22.08
2023-08-11T20:40:33.884Z,13.32
2023-08-11T20:43:01.512Z,15.52
2023-08-11T20:45:31.021Z,14.13
2023-08-11T20:48:12.924Z,13.43
2023-08-11T20:50:39.460Z,11.88
2023-08-11T20:53:06.033Z,14.68
2023-08-11T20:55:32.638Z,32.63
2023-08-11T20:57:59.200Z,18.23
2023-08-11T21:00:25.724Z,18.27
2023-08-11T21:02:52.347Z,14.15
2023-08-11T21:05:19.072Z,15.32
2023-08-11T21:07:45.636Z,16.13
2023-08-11T21:10:15.089Z,17.73
2023-08-11T21:12:42.880Z,16.85
2023-08-11T21:15:09.854Z,18.02
2023-08-11T21:17:36.401Z,13.70
2023-08-11T21:20:03.097Z,10.98
2023-08-11T21:22:29.807Z,13.25
2023-08-11T21:24:56.376Z,12.30
2023-08-11T21:27:22.944Z,18.35
2023-08-11T21:29:49.491Z,34.65
2023-08-11T21:32:16.070Z,19.55
2023-08-11T21:34:42.725Z,19.15
2023-08-11T21:37:09.547Z,27.27
2023-08-11T21:39:40.258Z,20.45
2023-08-11T21:42:10.428Z,19.85
2023-08-11T21:44:37.039Z,18.77
2023-08-11T21:47:04.516Z,11.75
2023-08-11T21:49:31.116Z,13.48
2023-08-11T21:51:57.795Z,19.00
2023-08-11T21:54:24.713Z,42.85
2023-08-11T21:56:51.298Z,29.10
2023-08-11T21:59:17.809Z,21.80
2023-08-11T22:01:45.279Z,15.48
2023-08-11T22:04:12.024Z,61.30
2023-08-11T22:06:38.609Z,56.28
2023-08-11T22:09:05.571Z,36.95
2023-08-11T22:11:36.850Z,26.70
2023-08-11T22:14:05.158Z,23.50
2023-08-11T22:16:33.156Z,12.52
2023-08-11T22:19:00.280Z,17.63
2023-08-11T22:21:26.947Z,35.22
2023-08-11T22:23:53.537Z,25.38
2023-08-11T22:26:20.298Z,38.83
2023-08-11T22:28:46.959Z,27.15
2023-08-11T22:31:13.570Z,30.02
2023-08-11T22:33:40.214Z,20.27
2023-08-11T22:36:06.890Z,26.38
2023-08-11T22:38:33.817Z,25.25
2023-08-11T22:41:00.998Z,32.80
2023-08-11T22:43:28.261Z,15.63
2023-08-11T22:45:54.983Z,10.35
2023-08-11T22:48:21.907Z,10.77
2023-08-11T22:50:48.581Z,9.73
2023-08-11T22:53:16.311Z,33.80
2023-08-11T22:55:42.860Z,21.42
2023-08-11T22:58:09.371Z,17.92
2023-08-11T23:00:36.227Z,41.92
2023-08-11T23:03:02.850Z,27.60
2023-08-11T23:05:29.411Z,17.83
2023-08-11T23:07:56.727Z,34.53
2023-08-11T23:10:23.668Z,17.90
2023-08-11T23:12:50.209Z,16.98
2023-08-11T23:15:16.948Z,15.70
2023-08-11T23:17:43.611Z,16.02
2023-08-11T23:20:10.595Z,22.27
2023-08-11T23:22:37.422Z,13.93
2023-08-11T23:25:06.358Z,19.50
2023-08-11T23:27:33.147Z,26.85
2023-08-11T23:30:01.581Z,20.67
2023-08-11T23:32:33.462Z,18.98
2023-08-11T23:35:00.712Z,16.52
2023-08-11T23:37:28.691Z,12.20
2023-08-11T23:39:58.814Z,11.20
2023-08-11T23:44:52.571Z,16.52
2023-08-11T23:47:19.233Z,13.07
2023-08-11T23:49:46.145Z,14.02
2023-08-11T23:52:12.788Z,12.65
2023-08-11T23:54:39.509Z,10.70
2023-08-11T23:57:06.387Z,11.50
2023-08-11T23:59:34.238Z,18.77
